createdAt,value
2016-08-19T00:00:00.869Z,99.54
2016-08-19T00:01:00.879Z,99.63
2016-08-19T00:02:00.877Z,99.44
2016-08-19T00:03:00.878Z,99.54
2016-08-19T00:04:00.882Z,99.63
2016-08-19T00:05:00.885Z,98.68
2016-08-19T00:06:00.887Z,98.39
2016-08-19T00:07:00.887Z,97.91
2016-08-19T00:08:00.888Z,98.29
2016-08-19T00:09:00.891Z,97.81
2016-08-19T00:10:00.894Z,98.29
2016-08-19T00:11:00.896Z,97.91
2016-08-19T00:12:00.897Z,98.58
2016-08-19T00:13:00.897Z,98.1
2016-08-19T00:14:00.901Z,98.48
2016-08-19T00:15:00.907Z,98.96
2016-08-19T00:16:00.907Z,98.82
2016-08-19T00:17:00.930Z,98.77
2016-08-19T00:18:00.929Z,98.82
2016-08-19T00:19:00.922Z,99.2
2016-08-19T00:20:00.921Z,99.58
2016-08-19T00:21:00.931Z,99.49
2016-08-19T00:22:00.917Z,99.97
2016-08-19T00:23:00.933Z,99.99
2016-08-19T00:24:00.926Z,99.4
2016-08-19T00:25:00.926Z,99.58
2016-08-19T00:26:00.941Z,99.58
2016-08-19T00:27:00.941Z,99.68
2016-08-19T00:28:00.943Z,99.99
2016-08-19T00:29:00.944Z,99.99
2016-08-19T00:30:00.942Z,99.99
2016-08-19T00:31:00.942Z,99.99
2016-08-19T00:32:00.941Z,99.83
2016-08-19T00:33:00.944Z,99.63
2016-08-19T00:34:00.946Z,99.2
2016-08-19T00:35:00.949Z,98.53
2016-08-19T00:36:00.956Z,99.2
2016-08-19T00:37:00.958Z,99.99
2016-08-19T00:38:00.957Z,99.99
2016-08-19T00:39:00.958Z,99.99
2016-08-19T00:40:00.962Z,99.99
2016-08-19T00:41:00.968Z,99.97
2016-08-19T00:42:00.970Z,99.58
2016-08-19T00:43:00.971Z,98.53
2016-08-19T00:44:00.970Z,97.86
2016-08-19T00:45:00.983Z,98.14
2016-08-19T00:46:00.971Z,98.43
2016-08-19T00:47:00.974Z,98.43
2016-08-19T00:48:00.978Z,99.68
2016-08-19T00:49:00.980Z,99.3
2016-08-19T00:50:00.984Z,99.68
2016-08-19T00:51:00.986Z,99.99
2016-08-19T00:52:00.989Z,99.99
2016-08-19T00:53:00.989Z,99.99
2016-08-19T00:54:01.699Z,99.99
2016-08-19T00:55:00.995Z,99.99
2016-08-19T00:56:00.997Z,99.99
2016-08-19T00:57:00.998Z,99.99
2016-08-19T00:58:01.300Z,99.99
2016-08-19T00:59:01.002Z,99.99
2016-08-19T01:00:01.005Z,99.99
2016-08-19T01:01:01.005Z,99.99
2016-08-19T01:02:01.011Z,99.99
2016-08-19T01:03:01.010Z,99.99
2016-08-19T01:04:01.013Z,99.99
2016-08-19T01:05:01.724Z,99.99
2016-08-19T01:06:01.017Z,99.99
2016-08-19T01:07:01.021Z,99.99
2016-08-19T01:08:01.021Z,99.99
2016-08-19T01:09:01.024Z,99.99
2016-08-19T01:10:01.028Z,99.99
2016-08-19T01:11:01.026Z,99.99
2016-08-19T01:12:01.031Z,99.99
2016-08-19T01:13:01.041Z,99.99
2016-08-19T01:14:01.049Z,99.99
2016-08-19T01:15:01.043Z,99.99
2016-08-19T01:16:01.043Z,99.99
2016-08-19T01:17:01.047Z,99.99
2016-08-19T01:18:01.050Z,99.99
2016-08-19T01:19:01.053Z,99.99
2016-08-19T01:20:01.059Z,99.99
2016-08-19T01:21:01.053Z,99.99
2016-08-19T01:22:01.056Z,99.99
2016-08-19T01:23:01.055Z,99.99
2016-08-19T01:24:01.055Z,99.99
2016-08-19T01:25:01.059Z,99.99
2016-08-19T01:26:01.059Z,99.99
2016-08-19T01:27:01.064Z,99.99
2016-08-19T01:28:01.067Z,99.99
2016-08-19T01:29:01.069Z,99.99
2016-08-19T01:30:01.072Z,99.99
2016-08-19T01:31:01.071Z,99.99
2016-08-19T01:32:01.078Z,99.99
2016-08-19T01:33:01.077Z,99.99
2016-08-19T01:34:01.080Z,99.99
2016-08-19T01:35:01.083Z,99.99
2016-08-19T01:36:01.083Z,99.99
2016-08-19T01:37:01.085Z,99.99
2016-08-19T01:38:01.086Z,99.99
2016-08-19T01:39:01.092Z,99.99
2016-08-19T01:40:01.091Z,99.99
2016-08-19T01:41:01.093Z,99.99
2016-08-19T01:42:01.096Z,99.99
2016-08-19T01:43:01.096Z,99.99
2016-08-19T01:44:01.100Z,99.99
2016-08-19T01:45:01.103Z,99.99
2016-08-19T01:46:01.106Z,99.99
2016-08-19T01:47:01.108Z,99.99
2016-08-19T01:48:01.107Z,99.99
2016-08-19T01:49:01.111Z,99.99
2016-08-19T01:50:01.112Z,99.99
2016-08-19T01:51:01.117Z,99.99
2016-08-19T01:52:01.118Z,99.99
2016-08-19T01:53:01.122Z,99.99
2016-08-19T01:54:01.829Z,99.99
2016-08-19T01:55:01.129Z,99.99
2016-08-19T01:56:01.125Z,99.99
2016-08-19T01:57:01.130Z,99.99
2016-08-19T01:58:01.187Z,99.99
2016-08-19T01:59:01.134Z,99.99
2016-08-19T02:00:01.133Z,99.99
2016-08-19T02:01:01.140Z,99.99
2016-08-19T02:02:01.146Z,99.99
2016-08-19T02:03:01.150Z,99.99
2016-08-19T02:04:01.149Z,99.99
2016-08-19T02:05:01.156Z,99.99
2016-08-19T02:06:01.149Z,99.99
2016-08-19T02:07:01.153Z,99.99
2016-08-19T02:08:01.154Z,99.99
2016-08-19T02:09:01.158Z,99.99
2016-08-19T02:10:01.175Z,99.99
2016-08-19T02:11:01.159Z,99.99
2016-08-19T02:12:01.160Z,99.99
2016-08-19T02:13:01.165Z,99.99
2016-08-19T02:14:01.870Z,99.99
2016-08-19T02:15:01.166Z,99.99
2016-08-19T02:16:01.170Z,99.99
2016-08-19T02:17:01.172Z,99.99
2016-08-19T02:18:01.174Z,99.99
2016-08-19T02:19:01.174Z,99.99
2016-08-19T02:20:01.178Z,99.99
2016-08-19T02:21:01.183Z,99.99
2016-08-19T02:22:01.180Z,99.99
2016-08-19T02:23:01.182Z,99.99
2016-08-19T02:24:01.183Z,99.99
2016-08-19T02:25:01.188Z,99.99
2016-08-19T02:26:01.192Z,99.99
2016-08-19T02:27:01.191Z,99.99
2016-08-19T02:28:01.199Z,99.99
2016-08-19T02:29:01.202Z,99.99
2016-08-19T02:30:01.208Z,99.99
2016-08-19T02:31:01.205Z,99.99
2016-08-19T02:32:01.204Z,99.99
2016-08-19T02:33:01.202Z,99.99
2016-08-19T02:34:01.206Z,99.99
2016-08-19T02:35:01.215Z,99.99
2016-08-19T02:36:01.213Z,99.99
2016-08-19T02:37:01.215Z,99.99
2016-08-19T02:38:01.214Z,99.99
2016-08-19T02:39:01.218Z,99.99
2016-08-19T02:40:01.217Z,99.99
2016-08-19T02:41:01.230Z,99.99
2016-08-19T02:42:01.243Z,99.99
2016-08-19T02:43:01.229Z,99.99
2016-08-19T02:44:01.237Z,99.99
2016-08-19T02:45:01.238Z,99.99
2016-08-19T02:46:01.234Z,99.99
2016-08-19T02:47:01.247Z,99.99
2016-08-19T02:48:01.237Z,99.99
2016-08-19T02:49:01.234Z,99.99
2016-08-19T02:50:01.248Z,99.99
2016-08-19T02:51:01.247Z,99.99
2016-08-19T02:52:01.246Z,99.99
2016-08-19T02:53:01.249Z,99.99
2016-08-19T02:54:01.261Z,99.99
2016-08-19T02:55:01.250Z,99.99
2016-08-19T02:56:01.256Z,99.99
2016-08-19T02:57:01.250Z,99.99
2016-08-19T02:58:01.452Z,99.99
2016-08-19T02:59:01.261Z,99.99
2016-08-19T03:00:01.254Z,99.99
2016-08-19T03:01:01.257Z,99.99
2016-08-19T03:02:01.258Z,99.99
2016-08-19T03:03:01.260Z,99.99
2016-08-19T03:04:01.264Z,99.99
2016-08-19T03:05:01.263Z,99.99
2016-08-19T03:06:01.270Z,99.99
2016-08-19T03:07:01.284Z,99.99
2016-08-19T03:08:01.268Z,99.99
2016-08-19T03:09:01.281Z,99.99
2016-08-19T03:10:01.274Z,99.99
2016-08-19T03:11:01.271Z,99.99
2016-08-19T03:12:01.274Z,99.99
2016-08-19T03:13:01.273Z,99.99
2016-08-19T03:14:01.277Z,99.99
2016-08-19T03:15:01.284Z,99.99
2016-08-19T03:16:01.283Z,99.99
2016-08-19T03:17:01.285Z,99.99
2016-08-19T03:18:01.287Z,99.99
2016-08-19T03:19:01.287Z,99.99
2016-08-19T03:20:01.287Z,99.99
2016-08-19T03:21:01.292Z,99.99
2016-08-19T03:22:01.296Z,99.99
2016-08-19T03:23:01.305Z,99.99
2016-08-19T03:24:01.299Z,99.99
2016-08-19T03:25:01.298Z,99.99
2016-08-19T03:26:01.297Z,99.99
2016-08-19T03:27:01.299Z,99.99
2016-08-19T03:28:01.313Z,99.99
2016-08-19T03:29:01.310Z,99.99
2016-08-19T03:30:01.316Z,99.99
2016-08-19T03:31:01.316Z,99.99
2016-08-19T03:32:01.315Z,99.99
2016-08-19T03:33:01.318Z,99.99
2016-08-19T03:34:01.316Z,99.99
2016-08-19T03:35:01.320Z,99.99
2016-08-19T03:36:01.317Z,99.99
2016-08-19T03:37:01.320Z,99.99
2016-08-19T03:38:01.322Z,99.99
2016-08-19T03:39:01.318Z,99.99
2016-08-19T03:40:01.320Z,99.99
2016-08-19T03:41:01.321Z,99.99
2016-08-19T03:42:01.321Z,99.99
2016-08-19T03:43:01.324Z,99.99
2016-08-19T03:44:01.329Z,99.99
2016-08-19T03:45:01.330Z,99.99
2016-08-19T03:46:01.331Z,99.99
2016-08-19T03:47:01.329Z,99.99
2016-08-19T03:48:01.336Z,99.99
2016-08-19T03:49:01.334Z,99.99
2016-08-19T03:50:01.337Z,99.99
2016-08-19T03:51:01.338Z,99.99
2016-08-19T03:52:01.339Z,99.99
2016-08-19T03:53:01.341Z,99.99
2016-08-19T03:54:02.050Z,99.99
2016-08-19T03:55:01.343Z,99.99
2016-08-19T03:56:01.345Z,99.99
2016-08-19T03:57:01.351Z,99.99
2016-08-19T03:58:01.497Z,99.99
2016-08-19T03:59:01.348Z,99.99
2016-08-19T04:00:01.357Z,99.99
2016-08-19T04:01:01.356Z,99.99
2016-08-19T04:02:01.359Z,99.99
2016-08-19T04:03:01.356Z,99.99
2016-08-19T04:04:01.367Z,99.99
2016-08-19T04:05:02.065Z,99.99
2016-08-19T04:06:01.370Z,99.99
2016-08-19T04:07:01.364Z,99.99
2016-08-19T04:08:01.370Z,99.99
2016-08-19T04:09:01.372Z,99.99
2016-08-19T04:10:01.371Z,99.99
2016-08-19T04:11:01.374Z,99.99
2016-08-19T04:12:01.370Z,99.99
2016-08-19T04:13:01.379Z,99.99
2016-08-19T04:14:01.373Z,99.99
2016-08-19T04:15:01.378Z,99.99
2016-08-19T04:16:01.376Z,99.99
2016-08-19T04:17:01.380Z,99.99
2016-08-19T04:18:01.380Z,99.99
2016-08-19T04:19:01.382Z,99.99
2016-08-19T04:20:01.385Z,99.99
2016-08-19T04:21:01.381Z,99.99
2016-08-19T04:22:01.392Z,99.99
2016-08-19T04:23:01.386Z,99.99
2016-08-19T04:24:01.387Z,99.99
2016-08-19T04:25:01.399Z,99.99
2016-08-19T04:26:01.393Z,99.99
2016-08-19T04:27:01.392Z,99.99
2016-08-19T04:28:01.395Z,99.99
2016-08-19T04:29:01.393Z,99.99
2016-08-19T04:30:01.396Z,99.99
2016-08-19T04:31:01.403Z,99.99
2016-08-19T04:32:01.398Z,99.99
2016-08-19T04:33:01.400Z,99.99
2016-08-19T04:34:01.404Z,99.99
2016-08-19T04:35:01.402Z,99.99
2016-08-19T04:36:01.412Z,99.99
2016-08-19T04:37:01.404Z,99.99
2016-08-19T04:38:01.406Z,99.99
2016-08-19T04:39:01.410Z,99.99
2016-08-19T04:40:01.408Z,99.99
2016-08-19T04:41:01.410Z,99.99
2016-08-19T04:42:01.410Z,99.99
2016-08-19T04:43:01.420Z,99.99
2016-08-19T04:44:01.417Z,99.99
2016-08-19T04:45:01.416Z,99.99
2016-08-19T04:46:01.417Z,99.99
2016-08-19T04:47:01.416Z,99.99
2016-08-19T04:48:01.419Z,99.99
2016-08-19T04:49:01.437Z,99.99
2016-08-19T04:50:01.421Z,99.99
2016-08-19T04:51:01.424Z,99.99
2016-08-19T04:52:01.424Z,99.99
2016-08-19T04:53:01.427Z,99.99
2016-08-19T04:54:01.426Z,99.99
2016-08-19T04:55:01.426Z,99.99
2016-08-19T04:56:01.430Z,99.99
2016-08-19T04:57:01.460Z,99.99
2016-08-19T04:58:01.634Z,99.99
2016-08-19T04:59:02.148Z,99.99
2016-08-19T05:00:01.437Z,99.99
2016-08-19T05:01:01.441Z,99.99
2016-08-19T05:02:01.441Z,99.99
2016-08-19T05:03:01.439Z,99.99
2016-08-19T05:04:01.444Z,99.01
2016-08-19T05:05:01.446Z,98.14
2016-08-19T05:06:01.453Z,97.91
2016-08-19T05:07:01.452Z,97.42
2016-08-19T05:08:01.452Z,97.14
2016-08-19T05:09:01.456Z,97.42
2016-08-19T05:10:02.169Z,96.32
2016-08-19T05:11:01.460Z,95.65
2016-08-19T05:12:01.469Z,93.58
2016-08-19T05:13:01.466Z,91.56
2016-08-19T05:14:01.469Z,90.65
2016-08-19T05:15:01.467Z,89.88
2016-08-19T05:16:01.466Z,89.15
2016-08-19T05:17:01.472Z,88.1
2016-08-19T05:18:01.487Z,86.89
2016-08-19T05:19:01.477Z,85.74
2016-08-19T05:20:01.486Z,84.14
2016-08-19T05:21:01.486Z,83.95
2016-08-19T05:22:01.494Z,84.29
2016-08-19T05:23:01.491Z,85.25
2016-08-19T05:24:01.492Z,85.64
2016-08-19T05:25:01.496Z,86.89
2016-08-19T05:26:01.500Z,87.52
2016-08-19T05:27:02.229Z,88.67
2016-08-19T05:28:01.507Z,88.73
2016-08-19T05:29:01.507Z,89.88
2016-08-19T05:30:01.515Z,89.5
2016-08-19T05:31:01.514Z,90.07
2016-08-19T05:32:01.521Z,91.03
2016-08-19T05:33:01.529Z,91.32
2016-08-19T05:34:01.528Z,91.71
2016-08-19T05:35:01.530Z,91.8
2016-08-19T05:36:01.532Z,91.66
2016-08-19T05:37:01.534Z,92.47
2016-08-19T05:38:01.536Z,92.38
2016-08-19T05:39:01.542Z,93.34
2016-08-19T05:40:01.549Z,92.05
2016-08-19T05:41:01.551Z,92.81
2016-08-19T05:42:01.548Z,93.39
2016-08-19T05:43:01.552Z,93.49
2016-08-19T05:44:01.553Z,93.49
2016-08-19T05:45:02.277Z,93.01
2016-08-19T05:46:01.561Z,92.52
2016-08-19T05:47:01.562Z,93.77
2016-08-19T05:48:01.563Z,94.59
2016-08-19T05:49:01.567Z,94.59
2016-08-19T05:50:01.576Z,93.01
2016-08-19T05:51:01.571Z,90.45
2016-08-19T05:52:01.574Z,87.48
2016-08-19T05:53:01.575Z,87.13
2016-08-19T05:54:01.582Z,85.74
2016-08-19T05:55:01.583Z,85.06
2016-08-19T05:56:01.585Z,83.37
2016-08-19T05:57:01.590Z,81.01
2016-08-19T05:58:01.793Z,80.23
2016-08-19T05:59:01.597Z,79.5
2016-08-19T06:00:01.601Z,78.63
2016-08-19T06:01:01.602Z,77.03
2016-08-19T06:02:01.608Z,75.82
2016-08-19T06:03:01.620Z,74.76
2016-08-19T06:04:01.618Z,73.63
2016-08-19T06:05:02.333Z,72.77
2016-08-19T06:06:01.623Z,72.8
2016-08-19T06:07:01.627Z,73.15
2016-08-19T06:08:01.638Z,74.12
2016-08-19T06:09:01.638Z,76.78
2016-08-19T06:10:01.642Z,78
2016-08-19T06:11:01.657Z,78.63
2016-08-19T06:12:01.656Z,79.94
2016-08-19T06:13:01.659Z,80.62
2016-08-19T06:14:01.658Z,82.6
2016-08-19T06:15:01.662Z,83.08
2016-08-19T06:16:01.668Z,84
2016-08-19T06:17:01.671Z,84.77
2016-08-19T06:18:01.675Z,84.67
2016-08-19T06:19:01.699Z,86.02
2016-08-19T06:20:01.688Z,85.16
2016-08-19T06:21:01.691Z,84.39
2016-08-19T06:22:01.689Z,83.56
2016-08-19T06:23:01.700Z,80.71
2016-08-19T06:24:01.694Z,79.31
2016-08-19T06:25:01.701Z,76.36
2016-08-19T06:26:01.702Z,73.89
2016-08-19T06:27:01.709Z,71.06
2016-08-19T06:28:01.721Z,69.74
2016-08-19T06:29:01.725Z,68.98
2016-08-19T06:30:01.723Z,67.01
2016-08-19T06:31:01.732Z,66.05
2016-08-19T06:32:01.730Z,65.3
2016-08-19T06:33:01.736Z,64.34
2016-08-19T06:34:01.741Z,64.47
2016-08-19T06:35:02.456Z,63.11
2016-08-19T06:36:02.461Z,62.27
2016-08-19T06:37:01.758Z,62.56
2016-08-19T06:38:01.770Z,62.27
2016-08-19T06:39:01.772Z,61.21
2016-08-19T06:40:01.775Z,60.46
2016-08-19T06:41:01.787Z,59.88
2016-08-19T06:42:01.797Z,59.13
2016-08-19T06:43:01.794Z,59.42
2016-08-19T06:44:01.799Z,59.16
2016-08-19T06:45:01.817Z,58.48
2016-08-19T06:46:01.817Z,58.09
2016-08-19T06:47:01.820Z,58.97
2016-08-19T06:48:01.825Z,58.77
2016-08-19T06:49:01.834Z,58.29
2016-08-19T06:50:01.840Z,58.39
2016-08-19T06:51:01.847Z,57.25
2016-08-19T06:52:01.852Z,57.06
2016-08-19T06:53:01.862Z,55.73
2016-08-19T06:54:01.876Z,55.92
2016-08-19T06:55:01.874Z,55.14
2016-08-19T06:56:01.884Z,55.33
2016-08-19T06:57:01.894Z,56.11
2016-08-19T06:58:01.945Z,55.63
2016-08-19T06:59:01.901Z,56.7
2016-08-19T07:00:01.924Z,58.41
2016-08-19T07:01:01.916Z,59.94
2016-08-19T07:02:01.925Z,60.1
2016-08-19T07:03:01.939Z,60.78
2016-08-19T07:04:01.939Z,59.13
2016-08-19T07:05:01.942Z,59.69
2016-08-19T07:06:01.948Z,60.55
2016-08-19T07:07:01.959Z,60.27
2016-08-19T07:08:01.965Z,60.07
2016-08-19T07:09:01.979Z,59.91
2016-08-19T07:10:01.982Z,59.13
2016-08-19T07:11:01.983Z,57.87
2016-08-19T07:12:01.994Z,57.29
2016-08-19T07:13:01.997Z,57.03
2016-08-19T07:14:02.005Z,56.28
2016-08-19T07:15:02.012Z,56.28
2016-08-19T07:16:02.022Z,56.3
2016-08-19T07:17:02.024Z,55.82
2016-08-19T07:18:02.032Z,55.33
2016-08-19T07:19:02.041Z,55.82
2016-08-19T07:20:02.047Z,56.01
2016-08-19T07:21:02.063Z,55.43
2016-08-19T07:22:02.066Z,56.57
2016-08-19T07:23:02.068Z,56.45
2016-08-19T07:24:02.074Z,57.12
2016-08-19T07:25:02.085Z,57.22
2016-08-19T07:26:02.088Z,57.8
2016-08-19T07:27:02.095Z,58.87
2016-08-19T07:28:02.099Z,59.81
2016-08-19T07:29:02.105Z,58.94
2016-08-19T07:30:02.114Z,58.65
2016-08-19T07:31:02.127Z,57.7
2016-08-19T07:32:02.126Z,58.97
2016-08-19T07:33:02.133Z,60
2016-08-19T07:34:02.141Z,61.33
2016-08-19T07:35:02.151Z,62.37
2016-08-19T07:36:02.149Z,63.31
2016-08-19T07:37:02.162Z,64.72
2016-08-19T07:38:02.162Z,65.11
2016-08-19T07:39:02.167Z,66.14
2016-08-19T07:40:02.183Z,66.82
2016-08-19T07:41:02.185Z,67.27
2016-08-19T07:42:02.188Z,66.63
2016-08-19T07:43:02.192Z,66.14
2016-08-19T07:44:02.203Z,66.33
2016-08-19T07:45:02.206Z,65.37
2016-08-19T07:46:02.210Z,63.46
2016-08-19T07:47:02.215Z,61.56
2016-08-19T07:48:02.221Z,61.11
2016-08-19T07:49:02.226Z,59.69
2016-08-19T07:50:02.238Z,57.87
2016-08-19T07:51:02.238Z,56.28
2016-08-19T07:52:02.246Z,54.07
2016-08-19T07:53:02.248Z,53.16
2016-08-19T07:54:02.251Z,52.01
2016-08-19T07:55:02.268Z,52.01
2016-08-19T07:56:02.276Z,51.04
2016-08-19T07:57:02.275Z,50.29
2016-08-19T07:58:03.039Z,50.29
2016-08-19T07:59:02.290Z,50.38
2016-08-19T08:00:02.299Z,49.73
2016-08-19T08:01:02.309Z,49.15
2016-08-19T08:02:02.311Z,49.73
2016-08-19T08:03:02.321Z,49.83
2016-08-19T08:04:02.322Z,49.54
2016-08-19T08:05:02.336Z,49.73
2016-08-19T08:06:03.057Z,49.54
2016-08-19T08:07:02.353Z,49.24
2016-08-19T08:08:02.349Z,47.71
2016-08-19T08:09:02.359Z,47.61
2016-08-19T08:10:02.364Z,47.42
2016-08-19T08:11:02.375Z,47.25
2016-08-19T08:12:02.393Z,46.69
2016-08-19T08:13:02.395Z,46.97
2016-08-19T08:14:02.403Z,47.15
2016-08-19T08:15:02.411Z,47.52
2016-08-19T08:16:02.419Z,47.9
2016-08-19T08:17:02.427Z,47.42
2016-08-19T08:18:02.428Z,46.66
2016-08-19T08:19:02.436Z,46.69
2016-08-19T08:20:02.444Z,46.47
2016-08-19T08:21:02.457Z,45.68
2016-08-19T08:22:02.460Z,45.81
2016-08-19T08:23:02.467Z,45.92
2016-08-19T08:24:02.477Z,44.37
2016-08-19T08:25:02.483Z,44.29
2016-08-19T08:26:02.490Z,44.87
2016-08-19T08:27:02.496Z,45.54
2016-08-19T08:28:02.504Z,45.83
2016-08-19T08:29:02.511Z,45.9
2016-08-19T08:30:02.521Z,45.12
2016-08-19T08:31:02.530Z,45.25
2016-08-19T08:32:02.551Z,44.58
2016-08-19T08:33:02.546Z,44.19
2016-08-19T08:34:02.557Z,44.58
2016-08-19T08:35:02.563Z,44.97
2016-08-19T08:36:02.572Z,45.07
2016-08-19T08:37:02.579Z,45.26
2016-08-19T08:38:02.595Z,45.34
2016-08-19T08:39:02.597Z,45.81
2016-08-19T08:40:02.603Z,45.71
2016-08-19T08:41:02.614Z,46.47
2016-08-19T08:42:02.622Z,49.07
2016-08-19T08:43:02.630Z,51.43
2016-08-19T08:44:02.646Z,54
2016-08-19T08:45:02.648Z,54.66
2016-08-19T08:46:02.653Z,55.5
2016-08-19T08:47:02.668Z,56.25
2016-08-19T08:48:02.670Z,57.09
2016-08-19T08:49:02.678Z,58.26
2016-08-19T08:50:02.685Z,58.14
2016-08-19T08:51:02.695Z,59
2016-08-19T08:52:02.710Z,61.01
2016-08-19T08:53:02.712Z,61.3
2016-08-19T08:54:02.717Z,61.21
2016-08-19T08:55:02.722Z,61.01
2016-08-19T08:56:02.738Z,60.72
2016-08-19T08:57:02.737Z,60.24
2016-08-19T08:58:02.842Z,60.24
2016-08-19T08:59:02.749Z,59.94
2016-08-19T09:00:02.757Z,60.78
2016-08-19T09:01:02.766Z,60.82
2016-08-19T09:02:02.770Z,60.24
2016-08-19T09:03:02.774Z,60.33
2016-08-19T09:04:02.782Z,60.72
2016-08-19T09:05:02.801Z,60.24
2016-08-19T09:06:02.799Z,60.82
2016-08-19T09:07:02.802Z,61.11
2016-08-19T09:08:02.808Z,60.24
2016-08-19T09:09:02.812Z,60.21
2016-08-19T09:10:02.817Z,60.78
2016-08-19T09:11:02.826Z,60.69
2016-08-19T09:12:02.830Z,60.59
2016-08-19T09:13:03.542Z,61.27
2016-08-19T09:14:02.840Z,61.24
2016-08-19T09:15:02.845Z,60.98
2016-08-19T09:16:02.859Z,61.27
2016-08-19T09:17:02.864Z,61.56
2016-08-19T09:18:02.869Z,61.72
2016-08-19T09:19:02.869Z,61.24
2016-08-19T09:20:02.874Z,61.72
2016-08-19T09:21:02.879Z,61.95
2016-08-19T09:22:02.884Z,61.36
2016-08-19T09:23:02.889Z,61.76
2016-08-19T09:24:02.895Z,60.69
2016-08-19T09:25:02.907Z,60.59
2016-08-19T09:26:02.904Z,60.91
2016-08-19T09:27:02.908Z,60.82
2016-08-19T09:28:03.621Z,60.5
2016-08-19T09:29:02.922Z,60.69
2016-08-19T09:30:02.925Z,59.82
2016-08-19T09:31:02.933Z,59.53
2016-08-19T09:32:02.939Z,60.21
2016-08-19T09:33:02.945Z,60.3
2016-08-19T09:34:02.947Z,59.72
2016-08-19T09:35:02.953Z,59.82
2016-08-19T09:36:02.957Z,58.88
2016-08-19T09:37:02.966Z,58.49
2016-08-19T09:38:02.972Z,58.11
2016-08-19T09:39:02.973Z,58.3
2016-08-19T09:40:02.983Z,56.94
2016-08-19T09:41:02.981Z,57.5
2016-08-19T09:42:02.987Z,57.98
2016-08-19T09:43:03.004Z,58.17
2016-08-19T09:44:03.028Z,58.07
2016-08-19T09:45:03.013Z,58.11
2016-08-19T09:46:03.019Z,57.81
2016-08-19T09:47:03.012Z,57.62
2016-08-19T09:48:03.015Z,58.59
2016-08-19T09:49:03.027Z,57.04
2016-08-19T09:50:03.031Z,56.65
2016-08-19T09:51:03.034Z,55.68
2016-08-19T09:52:03.037Z,54.62
2016-08-19T09:53:03.050Z,54.33
2016-08-19T09:54:03.048Z,55.49
2016-08-19T09:55:03.051Z,55.1
2016-08-19T09:56:03.067Z,55.98
2016-08-19T09:57:03.070Z,56.07
2016-08-19T09:58:03.122Z,56.07
2016-08-19T09:59:03.072Z,57.81
2016-08-19T10:00:03.083Z,56.85
2016-08-19T10:01:03.097Z,56.65
2016-08-19T10:02:03.102Z,56.75
2016-08-19T10:03:03.099Z,55.88
2016-08-19T10:04:03.105Z,55.22
2016-08-19T10:05:03.119Z,55.32
2016-08-19T10:06:03.112Z,55.32
2016-08-19T10:07:03.122Z,54.55
2016-08-19T10:08:03.126Z,54.84
2016-08-19T10:09:03.128Z,54.55
2016-08-19T10:10:03.131Z,54.55
2016-08-19T10:11:03.843Z,55.32
2016-08-19T10:12:03.155Z,55.62
2016-08-19T10:13:03.148Z,55.52
2016-08-19T10:14:03.159Z,54.84
2016-08-19T10:15:03.866Z,55.22
2016-08-19T10:16:03.169Z,55.13
2016-08-19T10:17:03.177Z,55.32
2016-08-19T10:18:03.173Z,55.32
2016-08-19T10:19:03.183Z,54.06
2016-08-19T10:20:03.195Z,54.43
2016-08-19T10:21:03.199Z,55.2
2016-08-19T10:22:03.201Z,56.16
2016-08-19T10:23:03.200Z,56.16
2016-08-19T10:24:03.208Z,55.88
2016-08-19T10:25:03.219Z,54.71
2016-08-19T10:26:03.223Z,54.45
2016-08-19T10:27:03.222Z,54.35
2016-08-19T10:28:03.928Z,54.16
2016-08-19T10:29:03.242Z,54.09
2016-08-19T10:30:03.243Z,54.06
2016-08-19T10:31:03.260Z,53.77
2016-08-19T10:32:03.257Z,53.87
2016-08-19T10:33:03.253Z,53.97
2016-08-19T10:34:03.263Z,53.97
2016-08-19T10:35:03.260Z,53.97
2016-08-19T10:36:03.264Z,54.26
2016-08-19T10:37:03.991Z,52.42
2016-08-19T10:38:03.278Z,52.42
2016-08-19T10:39:03.281Z,52.42
2016-08-19T10:40:03.287Z,52.9
2016-08-19T10:41:03.299Z,53.49
2016-08-19T10:42:03.298Z,53.87
2016-08-19T10:43:03.317Z,52.8
2016-08-19T10:44:03.320Z,52.54
2016-08-19T10:45:03.320Z,51.67
2016-08-19T10:46:03.323Z,51.67
2016-08-19T10:47:03.353Z,52.44
2016-08-19T10:48:03.326Z,52.25
2016-08-19T10:49:03.333Z,52.06
2016-08-19T10:50:03.340Z,51.47
2016-08-19T10:51:03.349Z,51.31
2016-08-19T10:52:03.359Z,51.5
2016-08-19T10:53:03.360Z,51.31
2016-08-19T10:54:03.379Z,51.79
2016-08-19T10:55:03.367Z,51.11
2016-08-19T10:56:03.370Z,50.62
2016-08-19T10:57:03.378Z,50.36
2016-08-19T10:58:03.583Z,50.46
2016-08-19T10:59:03.393Z,50.84
2016-08-19T11:00:03.394Z,50.46
2016-08-19T11:01:03.402Z,49.51
2016-08-19T11:02:03.405Z,49.77
2016-08-19T11:03:03.412Z,49.71
2016-08-19T11:04:03.415Z,50.94
2016-08-19T11:05:03.423Z,50.36
2016-08-19T11:06:03.434Z,50.07
2016-08-19T11:07:03.436Z,50.34
2016-08-19T11:08:03.444Z,51.89
2016-08-19T11:09:03.453Z,51.69
2016-08-19T11:10:03.450Z,51.4
2016-08-19T11:11:03.457Z,49.97
2016-08-19T11:12:03.462Z,48.8
2016-08-19T11:13:03.474Z,48.25
2016-08-19T11:14:03.473Z,48.25
2016-08-19T11:15:03.479Z,48.25
2016-08-19T11:16:03.493Z,48.15
2016-08-19T11:17:03.498Z,47.28
2016-08-19T11:18:03.494Z,46.72
2016-08-19T11:19:03.524Z,46.72
2016-08-19T11:20:03.518Z,46.91
2016-08-19T11:21:03.514Z,46.04
2016-08-19T11:22:03.522Z,45.84
2016-08-19T11:23:03.526Z,46.52
2016-08-19T11:24:03.533Z,45.75
2016-08-19T11:25:03.538Z,44.79
2016-08-19T11:26:03.546Z,44.02
2016-08-19T11:27:03.553Z,44.02
2016-08-19T11:28:03.558Z,44.31
2016-08-19T11:29:03.563Z,44.21
2016-08-19T11:30:03.577Z,44.89
2016-08-19T11:31:03.576Z,44.89
2016-08-19T11:32:03.585Z,44.02
2016-08-19T11:33:03.594Z,43.24
2016-08-19T11:34:03.606Z,43.22
2016-08-19T11:35:03.606Z,44
2016-08-19T11:36:03.606Z,44.75
2016-08-19T11:37:03.617Z,45.55
2016-08-19T11:38:03.620Z,46.04
2016-08-19T11:39:03.625Z,45.75
2016-08-19T11:40:03.632Z,45.26
2016-08-19T11:41:03.649Z,42.66
2016-08-19T11:42:03.650Z,42.46
2016-08-19T11:43:04.359Z,42.46
2016-08-19T11:44:03.654Z,41.88
2016-08-19T11:45:03.663Z,41.98
2016-08-19T11:46:03.669Z,42.49
2016-08-19T11:47:03.683Z,42.58
2016-08-19T11:48:03.682Z,42.78
2016-08-19T11:49:03.689Z,42.1
2016-08-19T11:50:03.697Z,42.19
2016-08-19T11:51:03.700Z,42.29
2016-08-19T11:52:03.717Z,41.98
2016-08-19T11:53:03.716Z,41.88
2016-08-19T11:54:03.729Z,42.66
2016-08-19T11:55:03.730Z,43.02
2016-08-19T11:56:03.741Z,43.22
2016-08-19T11:57:03.742Z,44.68
2016-08-19T11:58:04.508Z,44.09
2016-08-19T11:59:03.763Z,44.87
2016-08-19T12:00:03.763Z,44
2016-08-19T12:01:03.775Z,44.29
2016-08-19T12:02:03.783Z,44.38
2016-08-19T12:03:03.781Z,45.24
2016-08-19T12:04:03.785Z,45.43
2016-08-19T12:05:03.791Z,44.29
2016-08-19T12:06:03.800Z,44.07
2016-08-19T12:07:04.512Z,44
2016-08-19T12:08:03.822Z,43.32
2016-08-19T12:09:03.816Z,43.41
2016-08-19T12:10:03.822Z,43.41
2016-08-19T12:11:03.835Z,43.41
2016-08-19T12:12:03.836Z,43.32
2016-08-19T12:13:03.842Z,43.92
2016-08-19T12:14:03.846Z,42.44
2016-08-19T12:15:03.858Z,42.44
2016-08-19T12:16:03.858Z,43.32
2016-08-19T12:17:03.866Z,45.53
2016-08-19T12:18:03.871Z,44.37
2016-08-19T12:19:03.882Z,45.62
2016-08-19T12:20:03.906Z,46.01
2016-08-19T12:21:03.902Z,44.37
2016-08-19T12:22:03.901Z,42.35
2016-08-19T12:23:03.903Z,42.54
2016-08-19T12:24:03.907Z,42.76
2016-08-19T12:25:03.914Z,43.02
2016-08-19T12:26:03.920Z,42.27
2016-08-19T12:27:03.925Z,43.02
2016-08-19T12:28:03.935Z,43.02
2016-08-19T12:29:03.952Z,42.83
2016-08-19T12:30:04.654Z,42.54
2016-08-19T12:31:03.947Z,42.74
2016-08-19T12:32:03.956Z,43.32
2016-08-19T12:33:03.961Z,42.46
2016-08-19T12:34:04.001Z,43.9
2016-08-19T12:35:04.057Z,42.76
2016-08-19T12:36:04.064Z,45.36
2016-08-19T12:37:03.990Z,43.02
2016-08-19T12:38:03.996Z,43.9
2016-08-19T12:39:04.012Z,44.48
2016-08-19T12:40:04.006Z,44.38
2016-08-19T12:41:04.010Z,43.34
2016-08-19T12:42:04.015Z,43.9
2016-08-19T12:43:04.033Z,43.41
2016-08-19T12:44:04.034Z,43.44
2016-08-19T12:45:04.033Z,43.15
2016-08-19T12:46:04.039Z,42.76
2016-08-19T12:47:04.044Z,42.18
2016-08-19T12:48:04.055Z,41.78
2016-08-19T12:49:04.056Z,44.41
2016-08-19T12:50:04.067Z,44.29
2016-08-19T12:51:04.779Z,43.9
2016-08-19T12:52:04.082Z,44.27
2016-08-19T12:53:04.096Z,43.98
2016-08-19T12:54:04.093Z,44.17